Time;durP1;ratioP1;P1;durP2;ratioP2;P2;SDS_P1;SDS_P2;PMS_P1;PMS_P2;Temp;Humidity;BMP_temperature;BMP_pressure;BME280_temperature;BME280_humidity;BME280_pressure;Samples;Min_cycle;Max_cycle;Signal;HPM_P1;HPM_P2
2023/10/29 00:00:50;;;;;;;21.67;9.57;;;7.50;99.90;;;;;;4374835;28;659233;-70
2023/10/29 00:03:39;;;;;;;22.63;9.53;;;7.50;99.90;;;;;;4364481;28;657587;-69
2023/10/29 00:06:27;;;;;;;18.07;9.03;;;7.50;99.90;;;;;;4371277;28;657598;-69
2023/10/29 00:09:14;;;;;;;18.53;9.27;;;7.60;99.90;;;;;;4355800;28;658457;-70
2023/10/29 00:12:01;;;;;;;23.30;8.97;;;7.50;99.90;;;;;;4369762;28;657972;-70
2023/10/29 00:14:48;;;;;;;18.13;9.03;;;7.50;99.90;;;;;;4346637;28;657569;-70
2023/10/29 00:17:36;;;;;;;25.77;10.10;;;7.50;99.90;;;;;;4372606;28;657682;-70
2023/10/29 00:20:24;;;;;;;20.87;10.23;;;7.60;99.90;;;;;;4352426;28;658473;-70
2023/10/29 00:23:11;;;;;;;23.13;9.80;;;7.60;99.90;;;;;;4364067;28;659946;-69
2023/10/29 00:25:59;;;;;;;22.87;9.30;;;7.70;99.90;;;;;;4352424;28;658005;-70
2023/10/29 00:28:46;;;;;;;17.00;8.63;;;7.60;99.90;;;;;;4365752;28;657939;-69
2023/10/29 00:31:33;;;;;;;22.00;9.53;;;7.60;99.90;;;;;;4350573;28;657455;-69
2023/10/29 00:34:20;;;;;;;21.80;8.97;;;7.70;99.90;;;;;;4375260;28;658685;-72
2023/10/29 00:37:09;;;;;;;19.58;7.70;;;7.70;99.90;;;;;;4353417;28;657557;-70
2023/10/29 00:39:56;;;;;;;23.00;7.23;;;7.70;99.90;;;;;;4376451;28;658075;-70
2023/10/29 00:42:43;;;;;;;20.13;7.03;;;7.80;99.90;;;;;;4356309;28;657964;-70
2023/10/29 00:45:30;;;;;;;17.23;7.20;;;7.90;99.90;;;;;;4377690;28;658753;-70
2023/10/29 00:48:18;;;;;;;19.10;7.67;;;7.90;99.90;;;;;;4358894;28;657538;-70
2023/10/29 00:51:05;;;;;;;17.77;7.80;;;8.00;99.90;;;;;;4374218;28;658233;-70
2023/10/29 00:53:54;;;;;;;15.47;6.80;;;8.00;99.90;;;;;;4367422;28;658738;-70
2023/10/29 00:56:41;;;;;;;14.37;7.10;;;8.00;99.90;;;;;;4384658;28;657397;-70
2023/10/29 00:59:28;;;;;;;13.43;6.70;;;8.00;99.90;;;;;;4368856;28;658729;-70
2023/10/29 01:02:16;;;;;;;13.43;6.27;;;8.00;99.90;;;;;;4376523;28;658661;-70
2023/10/29 01:05:05;;;;;;;12.33;5.47;;;8.00;99.90;;;;;;4358084;28;658323;-70
2023/10/29 01:07:53;;;;;;;14.13;5.60;;;8.00;99.90;;;;;;4375150;28;657239;-70
2023/10/29 01:10:42;;;;;;;11.93;5.50;;;8.00;99.90;;;;;;4384686;28;657429;-70
2023/10/29 01:13:29;;;;;;;13.83;6.73;;;8.00;99.90;;;;;;4358833;28;657704;-70
2023/10/29 01:16:16;;;;;;;11.47;4.97;;;8.10;99.90;;;;;;4374959;28;657840;-70
2023/10/29 01:19:03;;;;;;;10.30;4.33;;;8.10;99.90;;;;;;4355169;28;658165;-70
2023/10/29 01:21:50;;;;;;;12.90;4.67;;;8.10;99.90;;;;;;4373469;28;658226;-70
2023/10/29 01:24:39;;;;;;;8.80;4.43;;;8.10;99.90;;;;;;4356998;28;657670;-70
2023/10/29 01:27:27;;;;;;;8.30;4.90;;;8.20;99.90;;;;;;4375915;28;656634;-70
2023/10/29 01:30:15;;;;;;;18.37;5.87;;;8.10;99.90;;;;;;4359784;28;657501;-72
2023/10/29 01:33:02;;;;;;;12.83;6.50;;;8.20;99.90;;;;;;4378158;28;657524;-72
2023/10/29 01:35:50;;;;;;;10.10;5.27;;;8.20;99.90;;;;;;4375691;28;658646;-72
2023/10/29 01:38:37;;;;;;;16.00;7.67;;;8.20;99.90;;;;;;4376939;28;657093;-72
2023/10/29 01:41:25;;;;;;;16.27;7.10;;;8.30;99.90;;;;;;4351152;28;659069;-72
2023/10/29 01:44:13;;;;;;;13.57;7.33;;;8.30;99.90;;;;;;4377153;28;657521;-72
2023/10/29 01:47:00;;;;;;;13.90;7.70;;;8.30;99.90;;;;;;4353190;28;658200;-72
2023/10/29 01:49:48;;;;;;;15.80;8.57;;;8.20;99.90;;;;;;4354282;28;657278;-70
2023/10/29 01:52:37;;;;;;;16.23;8.97;;;8.30;99.90;;;;;;4374629;28;659428;-70
2023/10/29 01:55:24;;;;;;;16.23;9.03;;;8.30;99.90;;;;;;4358921;28;658565;-70
2023/10/29 01:58:12;;;;;;;19.27;11.40;;;8.30;99.90;;;;;;4379566;28;657257;-70
2023/10/29 02:01:01;;;;;;;10.43;6.43;;;8.30;99.90;;;;;;4356161;28;659674;-72
2023/10/29 02:03:48;;;;;;;17.23;9.83;;;8.30;99.90;;;;;;4352571;28;657878;-72
2023/10/29 02:06:38;;;;;;;24.83;9.43;;;8.30;99.90;;;;;;4377868;28;658766;-72
2023/10/29 02:09:26;;;;;;;21.30;10.40;;;8.40;99.90;;;;;;4351480;28;657728;-72
2023/10/29 02:12:14;;;;;;;17.83;11.27;;;8.40;99.90;;;;;;4356347;28;658730;-72
2023/10/29 02:15:01;;;;;;;17.45;11.32;;;8.40;99.90;;;;;;4371693;28;658785;-72
2023/10/29 02:17:50;;;;;;;21.07;10.90;;;8.40;99.90;;;;;;4348035;28;658148;-72
2023/10/29 02:20:37;;;;;;;16.37;7.60;;;8.40;99.90;;;;;;4364508;28;659258;-72
2023/10/29 02:23:27;;;;;;;10.43;6.50;;;8.40;99.90;;;;;;4374734;28;658324;-72
2023/10/29 02:26:14;;;;;;;9.43;5.03;;;8.40;99.90;;;;;;4357922;28;658982;-72
2023/10/29 02:29:02;;;;;;;13.70;4.90;;;8.40;99.90;;;;;;4374706;28;657639;-72
2023/10/29 02:31:49;;;;;;;14.70;7.33;;;8.50;99.90;;;;;;4354376;28;657473;-72
2023/10/29 02:34:36;;;;;;;11.03;5.87;;;8.50;99.90;;;;;;4373054;28;658398;-72
2023/10/29 02:37:23;;;;;;;8.90;5.17;;;8.50;99.90;;;;;;4353466;28;657941;-72
2023/10/29 02:40:13;;;;;;;14.87;5.43;;;8.50;99.90;;;;;;4377068;28;657490;-72
2023/10/29 02:43:00;;;;;;;14.40;5.27;;;8.50;99.90;;;;;;4352153;28;658800;-72
2023/10/29 02:45:48;;;;;;;14.07;4.20;;;8.50;99.90;;;;;;4349571;28;658585;-72
2023/10/29 02:48:35;;;;;;;7.87;3.90;;;8.40;99.90;;;;;;4370885;28;659444;-72
2023/10/29 02:51:22;;;;;;;8.20;4.17;;;8.40;99.90;;;;;;4373407;28;656879;-72
2023/10/29 02:54:10;;;;;;;6.27;3.80;;;8.30;99.90;;;;;;4381531;28;656977;-72
2023/10/29 02:56:58;;;;;;;12.87;3.80;;;8.20;99.90;;;;;;4377787;28;656741;-72
2023/10/29 02:59:45;;;;;;;7.03;3.63;;;8.20;99.90;;;;;;4358063;28;658789;-72
2023/10/29 03:02:33;;;;;;;6.37;3.37;;;8.20;99.90;;;;;;4356265;28;657919;-72
2023/10/29 03:05:20;;;;;;;5.97;3.60;;;8.10;99.90;;;;;;4379541;28;657838;-72
2023/10/29 03:08:07;;;;;;;9.30;3.60;;;8.10;99.90;;;;;;4365038;28;656458;-72
2023/10/29 03:10:56;;;;;;;7.13;3.03;;;8.10;99.90;;;;;;4381856;28;657211;-72
2023/10/29 03:13:44;;;;;;;8.50;3.60;;;8.10;99.90;;;;;;4356900;28;656565;-72
2023/10/29 03:16:32;;;;;;;11.90;3.60;;;8.10;99.90;;;;;;4377940;28;657619;-72
2023/10/29 03:19:19;;;;;;;12.57;3.30;;;8.10;99.90;;;;;;4358208;28;657328;-72
2023/10/29 03:22:06;;;;;;;6.57;3.27;;;8.00;99.90;;;;;;4374619;28;658837;-72
2023/10/29 03:24:53;;;;;;;7.87;3.00;;;8.00;99.90;;;;;;4358800;28;656809;-72
2023/10/29 03:27:41;;;;;;;12.30;3.23;;;7.90;99.90;;;;;;4381187;28;657984;-72
2023/10/29 03:30:29;;;;;;;5.20;3.30;;;7.80;99.90;;;;;;4359117;28;657811;-72
2023/10/29 03:33:16;;;;;;;9.30;4.70;;;7.80;99.90;;;;;;4380343;28;656413;-72
2023/10/29 03:36:05;;;;;;;5.50;3.00;;;7.70;99.90;;;;;;4358063;28;656595;-72
2023/10/29 03:38:52;;;;;;;7.10;2.47;;;7.70;99.90;;;;;;4372901;28;657189;-72
2023/10/29 03:41:40;;;;;;;4.03;2.60;;;7.60;99.90;;;;;;4378239;28;657359;-73
2023/10/29 03:44:27;;;;;;;11.33;2.50;;;7.50;99.90;;;;;;4377281;28;656584;-72
2023/10/29 03:47:15;;;;;;;4.33;2.30;;;7.50;99.90;;;;;;4359479;28;657844;-72
2023/10/29 03:50:03;;;;;;;11.83;2.60;;;7.30;99.90;;;;;;4363453;28;657134;-73
2023/10/29 03:52:50;;;;;;;6.40;2.50;;;7.20;99.90;;;;;;4380531;28;659010;-72
2023/10/29 03:55:37;;;;;;;4.57;2.23;;;7.20;99.90;;;;;;4368317;28;656341;-72
2023/10/29 03:58:25;;;;;;;4.90;2.10;;;7.10;99.90;;;;;;4384218;28;657284;-72
2023/10/29 04:01:13;;;;;;;4.40;2.03;;;7.10;99.90;;;;;;4386309;28;657729;-72
2023/10/29 04:04:03;;;;;;;6.00;2.23;;;7.00;99.90;;;;;;4355937;28;656470;-72
2023/10/29 04:06:50;;;;;;;4.93;2.47;;;7.00;99.90;;;;;;4354539;28;657044;-72
2023/10/29 04:09:37;;;;;;;8.70;2.90;;;6.90;99.90;;;;;;4367109;28;656344;-72
2023/10/29 04:12:27;;;;;;;4.63;3.17;;;6.80;99.90;;;;;;4381486;28;657308;-72
2023/10/29 04:15:15;;;;;;;9.25;5.60;;;6.80;99.90;;;;;;4353696;28;656905;-72
2023/10/29 04:18:03;;;;;;;9.93;6.00;;;6.70;99.90;;;;;;4375313;28;656533;-72
2023/10/29 04:20:51;;;;;;;13.83;5.23;;;6.60;99.90;;;;;;4375689;28;657434;-72
2023/10/29 04:23:39;;;;;;;7.10;4.20;;;6.50;99.90;;;;;;4354450;28;658393;-72
2023/10/29 04:26:27;;;;;;;10.23;3.50;;;6.50;99.90;;;;;;4378882;28;656850;-72
2023/10/29 04:29:16;;;;;;;5.00;2.53;;;6.40;99.90;;;;;;4358447;28;657674;-73
2023/10/29 04:32:03;;;;;;;10.30;6.00;;;6.40;99.90;;;;;;4362391;28;657381;-73
2023/10/29 04:34:51;;;;;;;15.23;7.97;;;6.40;99.90;;;;;;4376827;28;658138;-72
2023/10/29 04:37:39;;;;;;;13.73;6.50;;;6.40;99.90;;;;;;4352724;28;659366;-72
2023/10/29 04:40:27;;;;;;;8.40;4.43;;;6.40;99.90;;;;;;4356944;28;657459;-72
2023/10/29 04:43:14;;;;;;;7.80;4.70;;;6.30;99.90;;;;;;4344586;28;656761;-72
2023/10/29 04:46:01;;;;;;;8.70;4.80;;;6.20;99.90;;;;;;4355050;28;656566;-72
2023/10/29 04:48:48;;;;;;;10.37;5.60;;;6.20;99.90;;;;;;4338756;28;656567;-72
2023/10/29 04:51:35;;;;;;;9.90;4.50;;;6.10;99.90;;;;;;4363271;28;658443;-72
2023/10/29 04:54:24;;;;;;;7.43;3.87;;;6.00;99.90;;;;;;4347396;28;656452;-72
2023/10/29 04:57:11;;;;;;;7.77;4.07;;;6.00;99.90;;;;;;4361083;28;657749;-72
2023/10/29 04:59:59;;;;;;;10.75;4.07;;;5.90;99.90;;;;;;4342364;28;657530;-72
2023/10/29 05:02:46;;;;;;;8.27;4.30;;;5.90;99.90;;;;;;4366096;28;659138;-72
2023/10/29 05:05:33;;;;;;;10.40;4.00;;;6.00;99.90;;;;;;4338189;28;656816;-75
2023/10/29 05:08:20;;;;;;;14.30;4.30;;;5.90;99.90;;;;;;4358472;28;658084;-72
2023/10/29 05:11:09;;;;;;;9.57;4.87;;;5.90;99.90;;;;;;4338056;28;657929;-72
2023/10/29 05:13:56;;;;;;;18.10;6.75;;;5.90;99.90;;;;;;4356675;28;657070;-73
2023/10/29 05:16:44;;;;;;;20.60;9.50;;;5.90;99.90;;;;;;4337330;28;659061;-72
2023/10/29 05:19:31;;;;;;;20.03;7.50;;;6.00;99.90;;;;;;4359276;28;657486;-73
2023/10/29 05:22:18;;;;;;;20.60;7.40;;;5.90;99.90;;;;;;4341125;28;661741;-72
2023/10/29 05:25:08;;;;;;;23.60;10.20;;;5.90;99.90;;;;;;4358973;28;658370;-72
2023/10/29 05:27:56;;;;;;;13.97;7.50;;;5.90;99.90;;;;;;4340136;28;659611;-72
2023/10/29 05:30:43;;;;;;;15.98;6.32;;;5.80;99.90;;;;;;4347166;28;657212;-72
2023/10/29 05:33:31;;;;;;;12.27;5.50;;;5.80;99.90;;;;;;4361349;28;657745;-72
2023/10/29 05:36:18;;;;;;;8.50;3.93;;;5.80;99.90;;;;;;4341105;28;657998;-72
2023/10/29 05:39:07;;;;;;;10.67;4.93;;;5.80;99.90;;;;;;4382489;28;657919;-72
2023/10/29 05:41:54;;;;;;;6.97;3.60;;;5.90;99.90;;;;;;4349676;28;657514;-73
2023/10/29 05:44:43;;;;;;;7.93;3.00;;;6.00;99.90;;;;;;4373347;28;657228;-73
2023/10/29 05:47:30;;;;;;;8.60;3.53;;;6.00;99.90;;;;;;4352756;28;657901;-74
2023/10/29 05:50:17;;;;;;;8.97;3.67;;;6.00;99.90;;;;;;4369692;28;656732;-73
2023/10/29 05:53:05;;;;;;;8.43;4.03;;;5.90;99.90;;;;;;4378227;28;656478;-73
2023/10/29 05:55:52;;;;;;;13.07;3.50;;;6.00;99.90;;;;;;4375789;28;656783;-74
2023/10/29 05:58:40;;;;;;;9.60;4.10;;;6.10;99.90;;;;;;4373125;28;658550;-73
2023/10/29 06:01:28;;;;;;;8.80;3.60;;;6.10;99.90;;;;;;4379585;28;656846;-73
2023/10/29 06:04:15;;;;;;;8.40;3.93;;;6.20;99.90;;;;;;4355584;28;657609;-73
2023/10/29 06:07:03;;;;;;;8.17;2.80;;;6.30;99.90;;;;;;4358947;28;656731;-73
2023/10/29 06:09:50;;;;;;;5.80;3.20;;;6.30;99.90;;;;;;4372152;28;657124;-75
2023/10/29 06:12:38;;;;;;;7.37;3.60;;;6.40;99.90;;;;;;4351385;28;656797;-73
2023/10/29 06:15:25;;;;;;;10.23;3.67;;;6.60;99.90;;;;;;4375010;28;659372;-74
2023/10/29 06:18:16;;;;;;;9.50;4.47;;;6.70;99.90;;;;;;4368189;28;658483;-74
2023/10/29 06:21:04;;;;;;;8.20;4.10;;;6.80;99.90;;;;;;4350147;28;657012;-73
2023/10/29 06:23:51;;;;;;;12.30;4.30;;;6.90;99.90;;;;;;4375379;28;656974;-74
2023/10/29 06:26:39;;;;;;;10.43;5.40;;;7.00;99.90;;;;;;4343942;28;657513;-73
2023/10/29 06:29:26;;;;;;;10.37;4.50;;;7.20;99.90;;;;;;4372661;28;657422;-73
2023/10/29 06:32:13;;;;;;;9.57;4.20;;;7.30;99.90;;;;;;4363333;28;658722;-74
2023/10/29 06:35:02;;;;;;;12.60;6.33;;;7.40;99.90;;;;;;4371357;28;657619;-74
2023/10/29 06:37:49;;;;;;;12.90;7.07;;;7.50;99.90;;;;;;4351763;28;658863;-73
2023/10/29 06:40:36;;;;;;;19.37;11.90;;;7.70;99.90;;;;;;4369231;28;657852;-73
2023/10/29 06:43:23;;;;;;;16.20;10.17;;;7.80;99.90;;;;;;4349005;28;659169;-74
2023/10/29 06:46:10;;;;;;;10.97;6.40;;;8.00;99.90;;;;;;4374051;28;659022;-73
2023/10/29 06:48:58;;;;;;;12.43;7.53;;;8.10;99.90;;;;;;4355815;28;657976;-74
2023/10/29 06:51:46;;;;;;;11.23;6.67;;;8.30;99.90;;;;;;4378889;28;657890;-74
2023/10/29 06:54:34;;;;;;;9.40;5.23;;;8.50;99.90;;;;;;4359449;28;657399;-74
2023/10/29 06:57:21;;;;;;;12.83;5.87;;;8.80;99.90;;;;;;4377677;28;656916;-74
2023/10/29 07:00:09;;;;;;;15.47;5.77;;;9.00;99.90;;;;;;4359006;28;658019;-74
2023/10/29 07:02:56;;;;;;;12.67;4.70;;;9.20;99.90;;;;;;4370917;28;657870;-74
2023/10/29 07:05:44;;;;;;;8.53;3.10;;;9.40;99.90;;;;;;4335643;28;658548;-74
2023/10/29 07:08:33;;;;;;;7.83;3.10;;;9.60;99.90;;;;;;4374084;28;656446;-74
2023/10/29 07:11:20;;;;;;;6.43;2.63;;;9.80;99.90;;;;;;4353459;28;656670;-74
2023/10/29 07:14:07;;;;;;;5.33;2.60;;;10.00;99.90;;;;;;4359727;28;656490;-74
2023/10/29 07:16:55;;;;;;;9.57;2.83;;;10.20;99.90;;;;;;4381716;28;657755;-74
2023/10/29 07:19:42;;;;;;;7.00;2.60;;;10.40;99.90;;;;;;4376190;28;657573;-74
2023/10/29 07:22:29;;;;;;;4.73;2.50;;;10.50;99.90;;;;;;4359659;28;658180;-74
2023/10/29 07:25:18;;;;;;;5.50;2.33;;;10.80;99.90;;;;;;4381804;28;657753;-73
2023/10/29 07:28:05;;;;;;;5.53;2.10;;;10.90;99.90;;;;;;4349082;28;658190;-74
2023/10/29 07:30:52;;;;;;;4.77;2.43;;;11.00;99.90;;;;;;4342283;28;657766;-73
2023/10/29 07:33:40;;;;;;;4.77;2.60;;;11.20;99.90;;;;;;4364257;28;658120;-73
2023/10/29 07:36:28;;;;;;;5.87;2.77;;;11.30;99.90;;;;;;4360636;28;657617;-74
2023/10/29 07:39:16;;;;;;;5.10;2.63;;;11.50;99.90;;;;;;4340315;28;658149;-73
2023/10/29 07:42:05;;;;;;;11.17;2.63;;;11.70;99.90;;;;;;4344237;28;657710;-73
2023/10/29 07:44:54;;;;;;;5.70;2.60;;;11.80;99.90;;;;;;4358531;28;658473;-73
2023/10/29 07:47:41;;;;;;;5.90;2.47;;;11.80;99.90;;;;;;4363244;28;658846;-73
2023/10/29 07:50:28;;;;;;;6.90;2.30;;;11.90;99.90;;;;;;4344386;28;657947;-73
2023/10/29 07:53:15;;;;;;;4.10;2.40;;;12.00;99.90;;;;;;4365828;28;657718;-73
2023/10/29 07:56:09;;;;;;;5.37;2.37;;;12.20;99.90;;;;;;4361725;28;659100;-73
2023/10/29 07:58:57;;;;;;;7.57;2.90;;;12.20;99.90;;;;;;4357531;28;658388;-73
2023/10/29 08:01:45;;;;;;;8.37;2.47;;;12.40;99.90;;;;;;4360287;28;657274;-72
2023/10/29 08:04:32;;;;;;;7.07;2.20;;;12.70;99.90;;;;;;4373056;28;657619;-72
2023/10/29 08:07:20;;;;;;;6.27;2.13;;;13.00;99.90;;;;;;4384972;28;657795;-72
2023/10/29 08:10:08;;;;;;;5.30;2.20;;;13.30;99.90;;;;;;4366194;28;657648;-72
2023/10/29 08:12:56;;;;;;;4.90;2.03;;;13.70;99.90;;;;;;4379530;28;658681;-73
2023/10/29 08:15:44;;;;;;;4.57;1.80;;;14.00;99.90;;;;;;4361479;28;657880;-72
2023/10/29 08:18:31;;;;;;;4.38;1.85;;;14.50;99.90;;;;;;4380433;28;657372;-72
2023/10/29 08:21:19;;;;;;;2.67;1.40;;;14.80;99.90;;;;;;4357626;28;657938;-72
2023/10/29 08:24:07;;;;;;;2.53;1.40;;;14.90;99.90;;;;;;4380088;28;657935;-72
2023/10/29 08:26:54;;;;;;;5.63;1.77;;;14.90;99.90;;;;;;4360659;28;657308;-72
2023/10/29 08:29:43;;;;;;;2.53;1.37;;;15.30;99.90;;;;;;4363241;28;657782;-72
2023/10/29 08:32:33;;;;;;;3.47;1.70;;;15.70;99.90;;;;;;4340235;28;659219;-72
2023/10/29 08:35:20;;;;;;;5.87;1.63;;;15.70;99.90;;;;;;4340559;28;658378;-72
2023/10/29 08:38:07;;;;;;;4.07;1.70;;;15.80;99.90;;;;;;4351700;28;657621;-72
2023/10/29 08:40:55;;;;;;;5.40;2.00;;;15.60;99.90;;;;;;4363686;28;658487;-72
2023/10/29 08:43:42;;;;;;;5.93;2.00;;;16.00;99.90;;;;;;4360200;28;657760;-72
2023/10/29 08:46:30;;;;;;;6.13;2.27;;;16.00;99.90;;;;;;4362384;28;657769;-72
2023/10/29 08:49:19;;;;;;;6.40;2.43;;;16.20;99.90;;;;;;4359569;28;657626;-72
2023/10/29 08:52:06;;;;;;;7.33;2.40;;;16.60;99.90;;;;;;4362990;28;657801;-72
2023/10/29 08:54:54;;;;;;;7.67;2.43;;;16.80;99.90;;;;;;4348647;28;658126;-72
2023/10/29 08:57:41;;;;;;;6.67;2.93;;;16.90;99.90;;;;;;4378124;28;657694;-72
2023/10/29 09:00:28;;;;;;;6.07;2.80;;;17.30;99.90;;;;;;4359384;28;658188;-72
2023/10/29 09:03:15;;;;;;;3.77;2.13;;;17.90;99.90;;;;;;4378469;28;657932;-72
2023/10/29 09:06:05;;;;;;;4.17;2.57;;;18.20;99.90;;;;;;4359994;28;657758;-72
2023/10/29 09:08:52;;;;;;;6.07;2.80;;;18.70;99.90;;;;;;4382387;28;658195;-72
2023/10/29 09:11:39;;;;;;;5.10;2.50;;;19.20;99.90;;;;;;4358552;28;658511;-72
2023/10/29 09:14:26;;;;;;;6.37;2.87;;;19.50;99.90;;;;;;4378081;28;658042;-72
2023/10/29 09:17:13;;;;;;;6.60;2.47;;;19.60;99.90;;;;;;4360034;28;657693;-72
2023/10/29 09:20:01;;;;;;;8.13;3.07;;;19.70;99.90;;;;;;4377875;28;658047;-72
2023/10/29 09:22:49;;;;;;;5.30;2.40;;;19.70;99.90;;;;;;4349001;28;657679;-72
2023/10/29 09:25:36;;;;;;;6.30;2.70;;;20.10;99.90;;;;;;4361230;28;657593;-72
2023/10/29 09:28:24;;;;;;;5.17;2.40;;;20.10;88.70;;;;;;4350527;28;658379;-72
2023/10/29 09:31:16;;;;;;;5.57;2.37;;;20.10;99.90;;;;;;4378312;28;658296;-72
2023/10/29 09:34:04;;;;;;;3.43;2.33;;;20.10;99.90;;;;;;4334231;28;658357;-72
2023/10/29 09:36:51;;;;;;;9.77;2.77;;;20.70;91.70;;;;;;4375287;28;657741;-72
2023/10/29 09:39:40;;;;;;;5.50;2.23;;;20.90;90.30;;;;;;4359704;28;657418;-72
2023/10/29 09:42:29;;;;;;;4.07;2.03;;;20.90;83.20;;;;;;4370538;28;657312;-72
2023/10/29 09:45:18;;;;;;;4.13;2.20;;;21.40;70.10;;;;;;4378678;28;657214;-72
2023/10/29 09:48:05;;;;;;;3.23;1.60;;;21.30;71.20;;;;;;4355281;28;657775;-72
2023/10/29 09:50:53;;;;;;;4.83;1.90;;;21.70;76.20;;;;;;4359900;28;657479;-72
2023/10/29 09:53:40;;;;;;;8.67;2.10;;;21.50;73.70;;;;;;4377849;28;658506;-72
2023/10/29 09:56:29;;;;;;;2.97;1.80;;;21.70;81.20;;;;;;4346265;28;658103;-72
2023/10/29 09:59:17;;;;;;;5.53;2.20;;;22.10;68.80;;;;;;4361108;28;658344;-72
2023/10/29 10:02:05;;;;;;;4.47;1.80;;;22.60;70.40;;;;;;4343362;28;658420;-72
2023/10/29 10:04:52;;;;;;;4.00;1.70;;;22.60;63.70;;;;;;4352667;28;658618;-71
2023/10/29 10:07:40;;;;;;;3.87;1.80;;;22.20;59.70;;;;;;4361987;28;657930;-71
2023/10/29 10:10:47;;;;;;;4.90;1.73;;;22.30;63.70;;;;;;4360231;28;657202;-71
2023/10/29 10:13:41;;;;;;;5.77;1.87;;;22.80;74.20;;;;;;4338872;28;657885;-71
2023/10/29 10:16:28;;;;;;;3.88;1.70;;;23.20;61.70;;;;;;4320397;28;657852;-71
2023/10/29 10:19:15;;;;;;;5.40;1.90;;;23.20;58.80;;;;;;4361403;28;659204;-71
2023/10/29 10:22:03;;;;;;;3.80;1.58;;;23.10;60.20;;;;;;4355248;28;657562;-71
2023/10/29 10:24:50;;;;;;;6.33;1.70;;;23.00;59.00;;;;;;4378552;28;660100;-71
2023/10/29 10:27:48;;;;;;;4.80;1.87;;;22.80;59.50;;;;;;4354488;28;657899;-70
2023/10/29 10:30:38;;;;;;;2.80;1.43;;;22.40;66.70;;;;;;4339791;28;658134;-70
2023/10/29 10:33:25;;;;;;;4.37;1.40;;;21.80;59.20;;;;;;4356103;28;658193;-70
2023/10/29 10:36:13;;;;;;;3.80;1.40;;;21.50;60.70;;;;;;4359864;28;658425;-71
2023/10/29 10:39:00;;;;;;;2.83;1.37;;;20.80;66.20;;;;;;4378600;28;658395;-71
2023/10/29 10:41:49;;;;;;;3.47;1.40;;;21.80;63.80;;;;;;4360445;28;658344;-70
2023/10/29 10:44:37;;;;;;;2.73;1.23;;;21.30;74.10;;;;;;4379140;28;658113;-71
2023/10/29 10:47:25;;;;;;;3.23;1.60;;;21.80;61.80;;;;;;4359225;28;657918;-70
2023/10/29 10:50:13;;;;;;;4.27;1.40;;;21.90;64.60;;;;;;4358140;28;657658;-70
2023/10/29 10:53:00;;;;;;;2.20;1.10;;;22.30;66.20;;;;;;4381752;28;658383;-70
2023/10/29 10:55:47;;;;;;;5.88;1.20;;;21.90;66.60;;;;;;4361265;28;657581;-70
2023/10/29 10:58:35;;;;;;;5.27;1.13;;;21.30;62.20;;;;;;4376981;28;658413;-70
2023/10/29 11:01:22;;;;;;;3.53;1.23;;;20.60;62.70;;;;;;4359939;28;657988;-70
2023/10/29 11:04:11;;;;;;;3.73;1.10;;;20.30;71.10;;;;;;4381872;28;658036;-70
2023/10/29 11:06:58;;;;;;;6.53;1.60;;;20.80;63.10;;;;;;4359048;28;658153;-70
2023/10/29 11:09:46;;;;;;;8.63;1.57;;;21.50;66.60;;;;;;4377216;28;659231;-70
2023/10/29 11:12:34;;;;;;;4.13;1.10;;;21.80;58.40;;;;;;4360410;28;658688;-70
2023/10/29 11:15:22;;;;;;;4.40;1.47;;;20.90;64.30;;;;;;4379733;28;657669;-70
2023/10/29 11:18:09;;;;;;;6.23;1.30;;;21.00;71.20;;;;;;4358220;28;659503;-70
2023/10/29 11:20:59;;;;;;;3.73;1.30;;;21.10;58.70;;;;;;4380655;28;657849;-70
2023/10/29 11:23:46;;;;;;;3.20;1.10;;;21.50;59.30;;;;;;4341332;28;657978;-70
2023/10/29 11:26:33;;;;;;;2.03;1.00;;;21.80;62.00;;;;;;4344981;28;657906;-70
2023/10/29 11:29:42;;;;;;;4.57;1.03;;;21.50;61.30;;;;;;4364364;28;658323;-70
2023/10/29 11:32:29;;;;;;;4.17;1.47;;;22.30;61.90;;;;;;4345953;28;657664;-70
2023/10/29 11:35:20;;;;;;;4.27;1.43;;;22.40;57.80;;;;;;4364030;28;657908;-70
2023/10/29 11:38:30;;;;;;;2.53;1.07;;;22.70;58.90;;;;;;4325188;28;657556;-69
2023/10/29 11:41:33;;;;;;;6.43;1.40;;;22.50;56.90;;;;;;4331662;28;658389;-69
2023/10/29 11:44:24;;;;;;;5.37;1.20;;;22.00;57.20;;;;;;4340884;28;658093;-69
2023/10/29 11:47:12;;;;;;;5.27;1.40;;;21.60;57.60;;;;;;4366856;28;657917;-69
2023/10/29 11:50:12;;;;;;;4.27;1.67;;;21.00;59.80;;;;;;4379032;28;657835;-70
2023/10/29 11:52:59;;;;;;;3.50;2.20;;;21.50;61.60;;;;;;4351726;28;657651;-70
2023/10/29 11:55:47;;;;;;;9.67;1.93;;;22.00;60.40;;;;;;4384140;28;658278;-70
2023/10/29 11:58:35;;;;;;;6.77;2.03;;;23.00;63.20;;;;;;4365105;28;658132;-70
2023/10/29 12:01:22;;;;;;;2.70;1.65;;;23.80;56.80;;;;;;4395384;28;658185;-70
2023/10/29 12:04:10;;;;;;;3.75;1.35;;;24.50;55.20;;;;;;4398800;28;658355;-70
2023/10/29 12:06:57;;;;;;;3.88;1.58;;;24.80;51.50;;;;;;4392400;28;657675;-70
2023/10/29 12:09:45;;;;;;;3.38;1.27;;;24.40;51.20;;;;;;4402421;28;658132;-70
2023/10/29 12:12:34;;;;;;;4.63;1.40;;;24.40;50.80;;;;;;4396528;28;657427;-70
2023/10/29 12:15:22;;;;;;;5.15;1.50;;;24.80;52.40;;;;;;4397699;28;657754;-70
2023/10/29 12:18:19;;;;;;;3.75;1.50;;;24.90;50.20;;;;;;4375457;28;658270;-70
2023/10/29 12:21:07;;;;;;;2.85;1.40;;;24.60;51.40;;;;;;4375768;28;658151;-70
2023/10/29 12:23:57;;;;;;;7.45;1.90;;;24.90;49.70;;;;;;4343878;28;658317;-70
2023/10/29 12:26:44;;;;;;;2.95;1.60;;;24.70;49.60;;;;;;4341125;28;658213;-69
2023/10/29 12:29:33;;;;;;;4.28;1.50;;;23.50;52.20;;;;;;4363482;28;658544;-69
2023/10/29 12:32:22;;;;;;;3.33;1.42;;;23.00;52.70;;;;;;4336064;28;658421;-70
2023/10/29 12:35:09;;;;;;;2.33;1.30;;;23.20;52.00;;;;;;4359528;28;657572;-69
2023/10/29 12:37:56;;;;;;;4.35;1.33;;;23.00;53.00;;;;;;4396335;28;657797;-69
2023/10/29 12:41:04;;;;;;;3.70;1.40;;;22.90;55.10;;;;;;4377265;28;658271;-69
2023/10/29 12:43:53;;;;;;;4.25;1.40;;;23.10;56.20;;;;;;4374129;28;657757;-69
2023/10/29 12:46:47;;;;;;;2.23;1.33;;;22.50;55.50;;;;;;4374084;28;658271;-69
2023/10/29 12:49:34;;;;;;;5.20;1.23;;;22.20;55.30;;;;;;4351689;28;657940;-69
2023/10/29 12:52:22;;;;;;;3.83;1.30;;;22.80;54.90;;;;;;4396763;28;658777;-69
2023/10/29 12:55:09;;;;;;;3.15;1.00;;;21.40;56.40;;;;;;4366822;28;658173;-69
2023/10/29 12:57:57;;;;;;;3.23;1.00;;;21.60;58.00;;;;;;4379328;28;658356;-69
2023/10/29 13:00:44;;;;;;;3.30;1.17;;;21.40;56.60;;;;;;4360610;28;657816;-69
2023/10/29 13:03:33;;;;;;;1.55;1.08;;;21.70;56.90;;;;;;4379246;28;657626;-69
2023/10/29 13:06:21;;;;;;;2.80;1.50;;;22.70;56.00;;;;;;4355702;28;658253;-69
2023/10/29 13:09:09;;;;;;;6.85;1.80;;;23.20;54.10;;;;;;4360944;28;657743;-69
2023/10/29 13:11:56;;;;;;;8.73;1.60;;;23.00;53.80;;;;;;4379310;28;657087;-69
2023/10/29 13:14:45;;;;;;;3.50;1.40;;;23.00;53.80;;;;;;4359227;28;658396;-69
2023/10/29 13:17:33;;;;;;;7.15;1.73;;;22.80;55.60;;;;;;4359615;28;657482;-69
2023/10/29 13:20:25;;;;;;;6.28;1.27;;;22.80;56.30;;;;;;4377489;28;658480;-69
2023/10/29 13:23:13;;;;;;;6.43;1.65;;;22.90;54.60;;;;;;4332527;28;658103;-69
2023/10/29 13:26:00;;;;;;;3.60;1.53;;;22.40;55.00;;;;;;4365022;28;658199;-69
2023/10/29 13:28:49;;;;;;;5.07;1.90;;;21.40;57.20;;;;;;4346096;28;658797;-69
2023/10/29 13:31:36;;;;;;;7.97;1.70;;;20.90;61.50;;;;;;4362371;28;658629;-69
2023/10/29 13:34:24;;;;;;;5.77;1.70;;;20.50;76.60;;;;;;4343819;28;658091;-68
2023/10/29 13:37:13;;;;;;;3.77;1.77;;;19.80;99.90;;;;;;4362639;28;658421;-68
2023/10/29 13:40:00;;;;;;;2.50;0.80;;;19.90;91.70;;;;;;4337995;28;658471;-68
2023/10/29 13:42:47;;;;;;;3.43;1.10;;;19.40;80.10;;;;;;4357040;28;658308;-68
2023/10/29 13:45:35;;;;;;;4.10;1.30;;;19.30;97.30;;;;;;4362679;28;658642;-68
2023/10/29 13:48:22;;;;;;;3.90;1.30;;;19.30;99.90;;;;;;4362398;28;657652;-68
2023/10/29 13:51:10;;;;;;;7.13;1.57;;;18.90;99.90;;;;;;4339874;28;658764;-68
2023/10/29 13:53:59;;;;;;;3.60;1.27;;;18.80;99.90;;;;;;4354440;28;658207;-68
2023/10/29 13:56:47;;;;;;;5.47;1.40;;;18.70;99.90;;;;;;4379245;28;658022;-69
2023/10/29 13:59:34;;;;;;;8.40;1.83;;;18.50;99.90;;;;;;4360618;28;658078;-69
2023/10/29 14:02:21;;;;;;;8.80;1.60;;;18.50;99.90;;;;;;4377264;28;657545;-69
2023/10/29 14:05:08;;;;;;;3.80;1.30;;;18.30;99.90;;;;;;4360171;28;657715;-69
2023/10/29 14:07:57;;;;;;;5.20;1.60;;;18.10;99.90;;;;;;4378973;28;659630;-70
2023/10/29 14:10:47;;;;;;;8.23;2.37;;;17.90;99.90;;;;;;4356527;28;659376;-68
2023/10/29 14:13:34;;;;;;;4.40;1.30;;;17.90;99.90;;;;;;4358601;28;658329;-71
2023/10/29 14:16:31;;;;;;;4.43;1.80;;;17.40;99.90;;;;;;4382786;28;658466;-72
2023/10/29 14:19:21;;;;;;;7.03;1.60;;;17.30;99.90;;;;;;4340805;28;658264;-70
2023/10/29 14:22:08;;;;;;;11.67;2.17;;;17.50;99.90;;;;;;4356683;28;658090;-74
2023/10/29 14:24:55;;;;;;;5.63;1.60;;;17.40;99.90;;;;;;4364857;28;659418;-70